Time;durP1;ratioP1;P1;durP2;ratioP2;P2;SDS_P1;SDS_P2;PMS_P1;PMS_P2;Temp;Humidity;BMP_temperature;BMP_pressure;BME280_temperature;BME280_humidity;BME280_pressure;Samples;Min_cycle;Max_cycle;Signal;HPM_P1;HPM_P2
2022/01/17 00:01:17;;;;;;;10.90;5.82;;;0.40;99.90;;;;;;4990877;28;20571;-77
2022/01/17 00:03:43;;;;;;;10.52;5.38;;;0.20;99.90;;;;;;4992041;28;20053;-76
2022/01/17 00:06:09;;;;;;;8.65;4.93;;;0.30;99.90;;;;;;4990860;28;20491;-77
2022/01/17 00:08:41;;;;;;;10.00;5.35;;;0.40;99.90;;;;;;4991440;28;20089;-77
2022/01/17 00:11:07;;;;;;;10.80;5.60;;;0.30;99.90;;;;;;4993395;28;20029;-77
2022/01/17 00:13:33;;;;;;;10.38;5.55;;;0.10;99.90;;;;;;4993081;28;20180;-77
2022/01/17 00:16:11;;;;;;;10.90;5.50;;;-0.10;99.90;;;;;;4994278;28;20584;-77
2022/01/17 00:21:07;;;;;;;8.35;5.10;;;-0.20;99.90;;;;;;5001570;28;20036;-77
2022/01/17 00:23:33;;;;;;;11.43;5.30;;;-0.20;99.90;;;;;;5000820;28;20125;-77
2022/01/17 00:25:59;;;;;;;9.27;5.13;;;0.00;99.90;;;;;;5003455;28;20037;-76
2022/01/17 00:28:25;;;;;;;8.57;5.05;;;0.20;99.90;;;;;;4981360;28;20518;-77
2022/01/17 00:30:51;;;;;;;9.27;5.57;;;-0.10;99.90;;;;;;5000465;28;20030;-77
2022/01/17 00:33:16;;;;;;;11.18;5.60;;;-0.30;99.90;;;;;;5001103;28;20030;-77
2022/01/17 00:35:43;;;;;;;8.07;4.63;;;-0.30;99.90;;;;;;4999666;28;20025;-76
2022/01/17 00:38:12;;;;;;;7.30;4.60;;;-0.40;99.90;;;;;;4997009;28;20027;-77
2022/01/17 00:40:38;;;;;;;8.50;4.15;;;-0.20;99.90;;;;;;4992560;28;20100;-77
2022/01/17 00:43:04;;;;;;;7.00;4.28;;;0.10;99.90;;;;;;5004115;28;20026;-77
2022/01/17 00:45:31;;;;;;;6.60;4.07;;;0.20;99.90;;;;;;4995889;28;20034;-77
2022/01/17 00:48:00;;;;;;;8.00;4.65;;;0.10;99.90;;;;;;4998080;28;20030;-77
2022/01/17 00:50:28;;;;;;;9.85;5.20;;;-0.20;99.90;;;;;;5000045;28;20092;-77
2022/01/17 00:52:55;;;;;;;8.32;4.25;;;-0.40;99.90;;;;;;4999737;28;20022;-77
2022/01/17 00:55:21;;;;;;;9.60;4.75;;;-0.40;99.90;;;;;;5000803;28;20018;-77
2022/01/17 00:57:46;;;;;;;9.27;5.05;;;-0.20;99.90;;;;;;5009544;28;20027;-77
2022/01/17 01:00:13;;;;;;;9.60;4.93;;;0.10;99.90;;;;;;5006849;28;20032;-77
2022/01/17 01:02:40;;;;;;;8.55;4.80;;;0.10;99.90;;;;;;5005164;28;20128;-77
2022/01/17 01:05:07;;;;;;;8.13;3.90;;;0.10;99.90;;;;;;5007923;28;20036;-77
2022/01/17 01:07:32;;;;;;;6.18;3.67;;;0.00;99.90;;;;;;4996840;28;20076;-77
2022/01/17 01:10:10;;;;;;;7.93;4.25;;;0.10;99.90;;;;;;5002641;28;20443;-77
2022/01/17 01:12:40;;;;;;;7.53;3.78;;;0.30;99.90;;;;;;5007514;28;20586;-77
2022/01/17 01:15:17;;;;;;;6.78;3.88;;;0.40;99.90;;;;;;5001936;28;20033;-77
2022/01/17 01:17:55;;;;;;;6.78;3.90;;;0.00;99.90;;;;;;4995223;28;20521;-77
2022/01/17 01:28:28;;;;;;;6.85;4.10;;;0.30;99.90;;;;;;4998217;28;20116;-77
2022/01/17 01:30:56;;;;;;;7.38;4.45;;;0.30;99.90;;;;;;5003848;28;20113;-77
2022/01/17 01:33:27;;;;;;;8.23;4.03;;;0.20;99.90;;;;;;5005133;28;20109;-77
2022/01/17 01:36:00;;;;;;;7.47;4.15;;;0.00;99.90;;;;;;5005306;28;20096;-77
2022/01/17 01:38:26;;;;;;;8.07;3.95;;;0.00;99.90;;;;;;5000714;28;20038;-77
2022/01/17 01:40:52;;;;;;;8.60;4.60;;;-0.20;99.90;;;;;;5005849;28;20049;-77
2022/01/17 01:43:18;;;;;;;8.95;4.35;;;0.00;99.90;;;;;;5006081;28;20030;-77
2022/01/17 01:45:50;;;;;;;8.95;4.45;;;0.10;99.90;;;;;;5001124;28;20036;-77
2022/01/17 01:48:19;;;;;;;9.27;4.57;;;0.10;99.90;;;;;;5002991;28;20062;-77
2022/01/17 01:50:46;;;;;;;7.57;4.63;;;0.20;99.90;;;;;;5003770;28;20030;-77
2022/01/17 01:53:12;;;;;;;8.10;4.32;;;0.10;99.90;;;;;;4992856;28;20080;-77
2022/01/17 01:55:37;;;;;;;8.20;4.28;;;0.10;99.90;;;;;;5002316;28;20018;-77
2022/01/17 01:58:03;;;;;;;8.55;5.05;;;0.10;99.90;;;;;;5007030;28;20434;-77
2022/01/17 02:00:29;;;;;;;8.75;4.60;;;-0.10;99.90;;;;;;5007998;28;20410;-77
2022/01/17 02:02:55;;;;;;;10.05;4.82;;;-0.20;99.90;;;;;;4997714;28;20026;-77
2022/01/17 02:05:21;;;;;;;10.43;5.57;;;-0.30;99.90;;;;;;5006976;28;20092;-77
2022/01/17 02:07:46;;;;;;;10.45;5.75;;;-0.70;99.90;;;;;;4994852;28;20502;-77
2022/01/17 02:10:13;;;;;;;10.18;5.78;;;-0.70;99.90;;;;;;5000044;28;20504;-77
2022/01/17 02:12:39;;;;;;;10.38;6.05;;;-0.60;99.90;;;;;;5006531;28;20033;-77
2022/01/17 02:15:05;;;;;;;12.40;6.03;;;-0.60;99.90;;;;;;5002366;28;20026;-77
2022/01/17 02:17:34;;;;;;;9.93;5.72;;;-0.50;99.90;;;;;;4998998;28;20111;-76
2022/01/17 02:20:09;;;;;;;8.75;5.25;;;-0.60;99.90;;;;;;5003677;28;20022;-76
2022/01/17 02:22:39;;;;;;;11.18;5.47;;;-0.70;99.90;;;;;;5006237;28;20092;-76
2022/01/17 02:25:05;;;;;;;11.57;6.25;;;-0.70;99.90;;;;;;4997890;28;20109;-76
2022/01/17 02:27:31;;;;;;;9.90;5.18;;;-0.90;99.90;;;;;;5001787;28;20053;-76
2022/01/17 02:29:57;;;;;;;11.18;5.93;;;-0.70;99.90;;;;;;5003907;28;20033;-76
2022/01/17 02:32:22;;;;;;;8.73;4.78;;;-0.70;99.90;;;;;;4999967;28;20514;-76
2022/01/17 02:34:48;;;;;;;8.25;4.90;;;-0.80;99.90;;;;;;4999337;28;20029;-76
2022/01/17 02:37:15;;;;;;;9.25;5.45;;;-0.50;99.90;;;;;;5001781;28;20030;-76
2022/01/17 02:39:40;;;;;;;9.70;4.82;;;-0.50;99.90;;;;;;5007399;28;20037;-76
2022/01/17 02:42:07;;;;;;;7.55;4.57;;;-0.50;99.90;;;;;;5005622;28;20030;-77
2022/01/17 02:44:33;;;;;;;9.93;5.55;;;-0.50;99.90;;;;;;5004715;28;20029;-76
2022/01/17 02:47:00;;;;;;;13.18;6.28;;;-0.80;99.90;;;;;;4996843;28;20041;-76
2022/01/17 02:49:26;;;;;;;10.15;5.32;;;-0.70;99.90;;;;;;4998722;28;20271;-77
2022/01/17 02:51:53;;;;;;;10.75;6.18;;;-0.60;99.90;;;;;;5004557;28;20050;-76
2022/01/17 02:54:19;;;;;;;9.00;5.00;;;-0.70;99.90;;;;;;5001867;28;20084;-77
2022/01/17 02:56:45;;;;;;;11.07;5.53;;;-0.80;99.90;;;;;;5000386;28;20033;-77
2022/01/17 02:59:11;;;;;;;10.85;5.30;;;-0.90;99.90;;;;;;5002008;28;20495;-77
2022/01/17 03:01:36;;;;;;;9.90;4.90;;;-0.80;99.90;;;;;;5006498;28;20030;-77
2022/01/17 03:04:04;;;;;;;9.85;4.65;;;-0.70;99.90;;;;;;4997747;28;20481;-76
2022/01/17 03:06:30;;;;;;;8.52;4.35;;;-0.60;99.90;;;;;;4998089;28;20034;-76
2022/01/17 03:08:56;;;;;;;7.45;4.28;;;-0.70;99.90;;;;;;5001511;28;20022;-77
2022/01/17 03:11:27;;;;;;;7.88;4.65;;;-0.70;99.90;;;;;;4996453;28;20030;-77
2022/01/17 03:13:53;;;;;;;8.38;4.85;;;-0.70;99.90;;;;;;4995739;28;20034;-76
2022/01/17 03:16:29;;;;;;;7.93;4.07;;;-0.90;99.90;;;;;;5002510;28;20089;-77
2022/01/17 03:18:56;;;;;;;7.75;4.35;;;-0.80;99.90;;;;;;5005874;28;20022;-76
2022/01/17 03:21:21;;;;;;;8.40;4.53;;;-0.80;99.90;;;;;;5005519;28;20488;-76
2022/01/17 03:23:49;;;;;;;7.50;4.50;;;-0.60;99.90;;;;;;5001992;28;20026;-77
2022/01/17 03:26:16;;;;;;;9.93;4.45;;;-0.50;99.90;;;;;;4998622;28;20550;-76
2022/01/17 03:28:41;;;;;;;6.80;4.05;;;-0.50;99.90;;;;;;4996188;28;20033;-77
2022/01/17 03:31:08;;;;;;;6.90;4.13;;;-0.50;99.90;;;;;;5001639;28;20422;-77
2022/01/17 03:33:34;;;;;;;7.10;4.18;;;-0.50;99.90;;;;;;5036906;28;20057;-76
2022/01/17 03:36:00;;;;;;;6.57;3.88;;;-0.70;99.90;;;;;;5001636;28;20026;-76
2022/01/17 03:38:29;;;;;;;9.95;5.35;;;-0.70;99.90;;;;;;5002131;28;20400;-76
2022/01/17 03:40:57;;;;;;;9.05;4.85;;;-1.00;99.90;;;;;;5005678;28;20054;-76
2022/01/17 03:43:24;;;;;;;7.13;4.25;;;-0.70;99.90;;;;;;4994282;28;20094;-77
2022/01/17 03:45:50;;;;;;;8.45;4.88;;;-0.70;99.90;;;;;;4994851;28;20034;-76
2022/01/17 03:48:17;;;;;;;7.20;4.53;;;-0.80;99.90;;;;;;5002755;28;20385;-76
2022/01/17 03:50:43;;;;;;;9.25;5.40;;;-0.80;99.90;;;;;;4999914;28;20038;-76
2022/01/17 03:53:09;;;;;;;8.98;5.28;;;-1.00;99.90;;;;;;4998662;28;20491;-76
2022/01/17 03:55:35;;;;;;;10.43;5.00;;;-1.20;99.90;;;;;;5001572;28;20095;-76
2022/01/17 03:58:06;;;;;;;7.70;4.88;;;-1.20;99.90;;;;;;5002913;28;20026;-76
2022/01/17 04:00:43;;;;;;;6.82;4.57;;;-1.20;99.90;;;;;;5007436;28;20069;-76
2022/01/17 04:03:09;;;;;;;7.78;4.63;;;-1.00;99.90;;;;;;4999357;28;20084;-76
2022/01/17 04:05:35;;;;;;;7.72;4.75;;;-1.00;99.90;;;;;;4997775;28;20021;-76
2022/01/17 04:08:00;;;;;;;6.43;3.95;;;-0.90;99.90;;;;;;4995581;28;20022;-76
2022/01/17 04:10:26;;;;;;;7.47;4.30;;;-0.60;99.90;;;;;;5021500;28;20035;-76
2022/01/17 04:12:55;;;;;;;7.28;4.47;;;-0.60;99.90;;;;;;5002480;28;20563;-76
2022/01/17 04:15:21;;;;;;;7.93;3.83;;;-0.70;99.90;;;;;;5001194;28;20026;-76
2022/01/17 04:17:47;;;;;;;7.10;3.65;;;-0.70;99.90;;;;;;5002128;28;20018;-76
2022/01/17 04:20:24;;;;;;;7.25;3.95;;;-0.70;99.90;;;;;;5004394;28;20104;-76
2022/01/17 04:22:53;;;;;;;6.82;4.05;;;-0.70;99.90;;;;;;4981975;28;20029;-76
2022/01/17 04:25:19;;;;;;;4.93;3.30;;;-0.60;99.90;;;;;;4993335;28;20180;-76
2022/01/17 04:27:45;;;;;;;6.38;3.70;;;-0.70;99.90;;;;;;5002275;28;20104;-76
2022/01/17 04:30:13;;;;;;;5.88;3.63;;;-0.90;99.90;;;;;;5001866;28;20036;-76
2022/01/17 04:32:41;;;;;;;6.65;3.47;;;-0.90;99.90;;;;;;4995667;28;20411;-76
2022/01/17 04:35:08;;;;;;;6.82;3.90;;;-0.80;99.90;;;;;;5000175;28;20080;-76
2022/01/17 04:37:34;;;;;;;5.38;3.38;;;-0.70;99.90;;;;;;5002938;28;20503;-76
2022/01/17 04:39:59;;;;;;;6.88;3.70;;;-0.90;99.90;;;;;;4996016;28;20058;-76
2022/01/17 04:42:28;;;;;;;4.95;3.38;;;-1.00;99.90;;;;;;4999058;28;20037;-76
2022/01/17 04:45:07;;;;;;;8.57;4.38;;;-1.00;99.90;;;;;;5001520;28;20084;-76
2022/01/17 04:47:34;;;;;;;5.80;3.67;;;-1.40;99.90;;;;;;4996459;28;20026;-75
2022/01/17 04:49:59;;;;;;;5.53;3.67;;;-1.20;99.90;;;;;;4998715;28;20037;-75
2022/01/17 04:52:26;;;;;;;6.35;4.00;;;-0.80;99.90;;;;;;5001832;28;20109;-76
2022/01/17 04:54:54;;;;;;;5.80;3.65;;;-0.70;99.90;;;;;;5032961;28;20042;-76
2022/01/17 04:57:21;;;;;;;5.05;3.28;;;-0.80;99.90;;;;;;5005645;28;20100;-76
2022/01/17 04:59:47;;;;;;;6.03;3.80;;;-0.80;99.90;;;;;;5000495;28;20044;-75
2022/01/17 05:02:13;;;;;;;7.13;4.25;;;-1.10;99.90;;;;;;4995657;28;20026;-75
2022/01/17 05:04:39;;;;;;;7.07;3.95;;;-1.30;99.90;;;;;;4995201;28;20085;-76
2022/01/17 05:07:05;;;;;;;6.40;3.90;;;-1.30;99.90;;;;;;5000099;28;20492;-75
2022/01/17 05:09:31;;;;;;;7.38;4.30;;;-1.40;99.90;;;;;;5003074;28;20065;-75
2022/01/17 05:11:57;;;;;;;7.03;4.10;;;-1.20;99.90;;;;;;4997269;28;20022;-75
2022/01/17 05:14:25;;;;;;;5.57;3.05;;;-1.30;99.90;;;;;;4995659;28;20015;-75
2022/01/17 05:16:58;;;;;;;5.85;3.63;;;-1.10;99.90;;;;;;5002446;28;20037;-75
2022/01/17 05:22:07;;;;;;;6.60;3.90;;;-1.10;99.90;;;;;;4997384;28;20053;-75
2022/01/17 05:24:33;;;;;;;5.57;3.72;;;-0.90;99.90;;;;;;4999569;28;20488;-75
2022/01/17 05:26:59;;;;;;;5.07;3.17;;;-1.20;99.90;;;;;;5002770;28;20036;-75
2022/01/17 05:29:25;;;;;;;4.88;3.20;;;-1.20;99.90;;;;;;4996207;28;20506;-75
2022/01/17 05:31:50;;;;;;;6.15;3.60;;;-1.30;99.90;;;;;;4985227;28;20537;-75
2022/01/17 05:34:16;;;;;;;5.00;3.22;;;-1.00;99.90;;;;;;4999934;28;20027;-75
2022/01/17 05:36:42;;;;;;;6.90;3.70;;;-1.10;99.90;;;;;;5010906;28;20022;-75
2022/01/17 05:39:07;;;;;;;6.03;4.13;;;-1.30;99.90;;;;;;4998103;28;20062;-75
2022/01/17 05:41:33;;;;;;;6.63;3.90;;;-1.20;99.90;;;;;;5001309;28;20022;-75
2022/01/17 05:43:59;;;;;;;6.20;4.15;;;-1.10;99.90;;;;;;4998187;28;20029;-75
2022/01/17 05:46:25;;;;;;;5.07;3.25;;;-0.90;99.90;;;;;;4999990;28;20600;-75
2022/01/17 05:48:51;;;;;;;7.03;3.88;;;-1.10;99.90;;;;;;5002991;28;20265;-75
2022/01/17 05:51:16;;;;;;;5.57;3.70;;;-1.30;99.90;;;;;;5008464;28;20029;-75
2022/01/17 05:53:42;;;;;;;6.45;3.92;;;-1.20;99.90;;;;;;4997850;28;20476;-75
2022/01/17 05:56:08;;;;;;;4.70;3.60;;;-1.30;99.90;;;;;;5005094;28;20053;-75
2022/01/17 05:58:34;;;;;;;6.75;4.45;;;-1.10;99.90;;;;;;5007136;28;20744;-75
2022/01/17 06:01:00;;;;;;;7.70;3.90;;;-1.10;99.90;;;;;;4999707;28;20018;-75
2022/01/17 06:03:26;;;;;;;6.45;3.58;;;-1.10;99.90;;;;;;5003808;28;20034;-75
2022/01/17 06:05:53;;;;;;;6.25;4.10;;;-1.10;99.90;;;;;;5003105;28;20025;-75
2022/01/17 06:08:18;;;;;;;4.85;3.40;;;-1.20;99.90;;;;;;5000997;28;20034;-75
2022/01/17 06:10:44;;;;;;;9.02;4.38;;;-1.20;99.90;;;;;;5003118;28;20033;-75
2022/01/17 06:13:10;;;;;;;7.95;3.60;;;-1.30;99.90;;;;;;4999957;28;20103;-74
2022/01/17 06:15:36;;;;;;;6.40;3.95;;;-1.20;99.90;;;;;;5009463;28;20064;-75
2022/01/17 06:18:01;;;;;;;8.27;4.38;;;-1.00;99.90;;;;;;5000904;28;20022;-74
2022/01/17 06:20:27;;;;;;;6.72;3.53;;;-1.00;99.90;;;;;;5001179;28;20084;-75
2022/01/17 06:22:53;;;;;;;5.57;3.90;;;-0.80;99.90;;;;;;4998073;28;20030;-75
2022/01/17 06:25:19;;;;;;;6.03;3.85;;;-0.70;99.90;;;;;;5000071;28;20042;-74
2022/01/17 06:27:44;;;;;;;5.80;3.67;;;-0.80;99.90;;;;;;5004964;28;20512;-75
2022/01/17 06:30:13;;;;;;;6.78;3.72;;;-0.90;99.90;;;;;;5003063;28;20029;-74
2022/01/17 06:32:42;;;;;;;6.97;4.20;;;-0.90;99.90;;;;;;5001415;28;20092;-75
2022/01/17 06:35:08;;;;;;;9.25;5.13;;;-0.80;99.90;;;;;;5003997;28;20514;-75
2022/01/17 06:37:35;;;;;;;6.50;3.97;;;-0.90;99.90;;;;;;5006884;28;20052;-74
2022/01/17 06:40:02;;;;;;;7.90;4.35;;;-0.90;99.90;;;;;;4998963;28;20046;-75
2022/01/17 06:42:28;;;;;;;7.90;4.35;;;-1.10;99.90;;;;;;5003412;28;20030;-75
2022/01/17 06:44:54;;;;;;;7.35;4.20;;;-1.00;99.90;;;;;;5004684;28;20557;-75
2022/01/17 06:47:20;;;;;;;7.60;4.55;;;-1.00;99.90;;;;;;4999154;28;20030;-75
2022/01/17 06:49:47;;;;;;;6.97;4.28;;;-0.90;99.90;;;;;;5002329;28;20034;-74
2022/01/17 06:52:12;;;;;;;8.13;4.40;;;-0.80;99.90;;;;;;5002870;28;20423;-74
2022/01/17 06:54:38;;;;;;;7.38;4.07;;;-0.70;99.90;;;;;;5006154;28;20022;-75
2022/01/17 06:57:04;;;;;;;11.15;4.88;;;-0.70;99.90;;;;;;5000664;28;20491;-74
2022/01/17 06:59:30;;;;;;;7.30;4.60;;;-0.70;99.90;;;;;;5001195;28;20080;-74
2022/01/17 07:01:55;;;;;;;7.63;4.22;;;-0.60;99.90;;;;;;4996256;28;20033;-75
2022/01/17 07:04:21;;;;;;;9.45;5.15;;;-0.70;99.90;;;;;;4999703;28;20053;-74
2022/01/17 07:06:47;;;;;;;8.40;4.35;;;-0.60;99.90;;;;;;5003301;28;20488;-74
2022/01/17 07:09:16;;;;;;;8.13;4.35;;;-0.70;99.90;;;;;;5002930;28;20411;-74
2022/01/17 07:11:43;;;;;;;8.65;4.43;;;-0.60;99.90;;;;;;5000952;28;20034;-74
2022/01/17 07:14:10;;;;;;;10.63;4.65;;;-0.60;99.90;;;;;;5001648;28;20041;-75
2022/01/17 07:16:40;;;;;;;8.60;4.57;;;-0.60;99.90;;;;;;4993465;28;20022;-75
2022/01/17 07:19:06;;;;;;;10.13;5.82;;;-0.80;99.90;;;;;;4997176;28;20184;-75
2022/01/17 07:21:33;;;;;;;9.35;4.47;;;-1.00;99.90;;;;;;4998898;28;20073;-75
2022/01/17 07:24:02;;;;;;;9.18;5.25;;;-1.10;99.90;;;;;;4999790;28;20037;-75
2022/01/17 07:26:28;;;;;;;9.70;5.15;;;-1.10;99.90;;;;;;4990615;28;20097;-75
2022/01/17 07:28:54;;;;;;;7.70;4.70;;;-1.00;99.90;;;;;;5001427;28;20256;-74
2022/01/17 07:31:20;;;;;;;8.60;5.45;;;-1.10;99.90;;;;;;4997947;28;20555;-75
2022/01/17 07:33:46;;;;;;;10.32;4.95;;;-0.90;99.90;;;;;;5009696;28;20383;-75
2022/01/17 07:36:17;;;;;;;9.55;5.35;;;-0.80;99.90;;;;;;4996820;28;20018;-75
2022/01/17 07:38:44;;;;;;;10.85;5.00;;;-0.90;99.90;;;;;;5001001;28;20022;-75
2022/01/17 07:41:09;;;;;;;9.32;5.10;;;-0.80;99.90;;;;;;4997021;28;20104;-75
2022/01/17 07:43:37;;;;;;;8.80;5.30;;;-0.80;99.90;;;;;;4996432;28;20057;-75
2022/01/17 07:46:06;;;;;;;10.27;5.47;;;-0.70;99.90;;;;;;5001149;28;20508;-75
2022/01/17 07:48:56;;;;;;;9.75;5.55;;;-0.70;99.90;;;;;;5004563;28;20503;-75
2022/01/17 07:51:21;;;;;;;11.68;6.10;;;-0.80;99.90;;;;;;5003779;28;20029;-75
2022/01/17 07:53:46;;;;;;;9.23;5.05;;;-1.00;99.90;;;;;;4999880;28;20021;-75
2022/01/17 07:56:12;;;;;;;11.02;5.25;;;-0.80;99.90;;;;;;5005659;28;20491;-75
2022/01/17 07:58:38;;;;;;;11.18;5.00;;;-0.60;99.90;;;;;;4994265;28;20526;-74
2022/01/17 08:01:04;;;;;;;10.35;5.57;;;-0.50;99.90;;;;;;5000524;28;20023;-74
2022/01/17 08:03:30;;;;;;;9.10;4.68;;;-0.60;99.90;;;;;;5002297;28;20038;-74
2022/01/17 08:05:56;;;;;;;10.27;5.50;;;-0.70;99.90;;;;;;5002146;28;20026;-74
2022/01/17 08:08:22;;;;;;;10.82;5.85;;;-1.00;99.90;;;;;;4998156;28;20466;-75
2022/01/17 08:10:47;;;;;;;9.65;5.30;;;-1.20;99.90;;;;;;5001471;28;20506;-74
2022/01/17 08:13:13;;;;;;;11.00;5.25;;;-1.10;99.90;;;;;;5002461;28;20066;-74
2022/01/17 08:15:39;;;;;;;10.88;5.45;;;-1.00;99.90;;;;;;4991571;28;20024;-74
2022/01/17 08:18:05;;;;;;;9.13;5.25;;;-1.20;99.90;;;;;;4996740;28;20495;-74
2022/01/17 08:20:31;;;;;;;11.13;6.25;;;-0.90;99.90;;;;;;4996980;28;20029;-75
2022/01/17 08:22:59;;;;;;;11.10;5.97;;;-1.00;99.90;;;;;;4996909;28;20494;-74
2022/01/17 08:25:26;;;;;;;8.32;5.03;;;-0.70;99.90;;;;;;4992834;28;20125;-74
2022/01/17 08:27:52;;;;;;;11.50;5.38;;;-0.50;99.90;;;;;;5004497;28;20029;-74
2022/01/17 08:30:18;;;;;;;13.75;6.72;;;-0.70;99.90;;;;;;4990741;28;20030;-74
2022/01/17 08:32:44;;;;;;;12.85;6.40;;;-1.00;99.90;;;;;;4992639;28;20092;-75
2022/01/17 08:35:11;;;;;;;15.40;6.80;;;-1.10;99.90;;;;;;4991366;28;20022;-75
2022/01/17 08:37:37;;;;;;;13.05;7.45;;;-1.10;99.90;;;;;;4987576;28;20026;-74
2022/01/17 08:40:06;;;;;;;11.63;5.80;;;-1.20;99.90;;;;;;4992853;28;20042;-73
2022/01/17 08:42:33;;;;;;;14.77;6.50;;;-0.90;99.90;;;;;;4992845;28;20026;-74
2022/01/17 08:44:59;;;;;;;12.35;6.57;;;-1.20;99.90;;;;;;4990427;28;20517;-74
2022/01/17 08:47:25;;;;;;;11.32;6.05;;;-1.10;99.90;;;;;;4990265;28;20059;-73
2022/01/17 08:49:51;;;;;;;14.30;6.90;;;-0.80;99.90;;;;;;4991551;28;20029;-74
2022/01/17 08:52:17;;;;;;;13.40;7.22;;;-0.90;99.90;;;;;;4988172;28;20059;-73
2022/01/17 08:54:44;;;;;;;15.90;7.03;;;-1.10;99.90;;;;;;4992091;28;20525;-74
2022/01/17 08:57:10;;;;;;;14.40;7.13;;;-1.20;99.90;;;;;;4992194;28;20022;-74
2022/01/17 08:59:36;;;;;;;11.90;6.22;;;-1.20;99.90;;;;;;4994094;28;20030;-75
2022/01/17 09:02:02;;;;;;;12.82;6.97;;;-1.20;99.90;;;;;;4994933;28;20602;-75
2022/01/17 09:04:28;;;;;;;15.32;7.78;;;-1.30;99.90;;;;;;4997608;28;20023;-73
2022/01/17 09:06:54;;;;;;;14.43;6.97;;;-1.30;99.90;;;;;;5001631;28;20100;-74
2022/01/17 09:09:20;;;;;;;15.15;6.95;;;-1.20;99.90;;;;;;5001781;28;20623;-74
2022/01/17 09:11:46;;;;;;;16.73;8.55;;;-0.90;99.90;;;;;;4991958;28;20035;-74
2022/01/17 09:14:11;;;;;;;15.95;7.45;;;-1.00;99.90;;;;;;4993093;28;20498;-74
2022/01/17 09:16:37;;;;;;;18.15;8.60;;;-1.00;99.90;;;;;;4997905;28;20030;-74
2022/01/17 09:19:05;;;;;;;14.88;7.47;;;-1.00;99.90;;;;;;4999301;28;20087;-74
2022/01/17 09:21:31;;;;;;;13.52;7.85;;;-0.80;99.90;;;;;;4996101;28;20054;-74
2022/01/17 09:23:58;;;;;;;16.73;8.27;;;-0.60;99.90;;;;;;4992754;28;20078;-74
2022/01/17 09:26:28;;;;;;;15.45;7.50;;;-0.60;99.90;;;;;;4994997;28;20030;-74
2022/01/17 09:28:55;;;;;;;15.45;7.60;;;-0.50;99.90;;;;;;5006137;28;20018;-74
2022/01/17 09:31:21;;;;;;;17.20;7.70;;;-0.60;99.90;;;;;;5006748;28;20037;-74
2022/01/17 09:33:47;;;;;;;16.58;8.73;;;-0.70;99.90;;;;;;5000010;28;20034;-74
2022/01/17 09:36:14;;;;;;;17.33;8.52;;;-0.90;99.90;;;;;;5002423;28;20523;-74
2022/01/17 09:38:41;;;;;;;19.00;8.55;;;-0.80;99.90;;;;;;5003073;28;20022;-74
2022/01/17 09:41:07;;;;;;;13.85;7.57;;;-0.80;99.90;;;;;;4994501;28;20045;-74
2022/01/17 09:43:34;;;;;;;17.75;9.38;;;-0.70;99.90;;;;;;4983251;28;20100;-74
2022/01/17 09:46:00;;;;;;;20.95;10.15;;;-0.80;99.90;;;;;;5001516;28;20057;-74
2022/01/17 09:48:35;;;;;;;20.92;9.38;;;-1.00;99.90;;;;;;5006475;28;20510;-75
2022/01/17 09:51:14;;;;;;;23.65;10.38;;;-0.80;99.90;;;;;;5000388;28;20033;-74
2022/01/17 09:53:41;;;;;;;20.00;9.75;;;-0.60;99.90;;;;;;4999979;28;20068;-74
2022/01/17 09:56:08;;;;;;;21.27;10.10;;;-0.90;99.90;;;;;;4997117;28;20025;-74
2022/01/17 09:58:39;;;;;;;22.85;10.13;;;-0.70;99.90;;;;;;4997807;28;20029;-75
2022/01/17 10:01:06;;;;;;;20.08;8.98;;;-0.60;99.90;;;;;;4997640;28;20107;-74
2022/01/17 10:03:32;;;;;;;22.67;9.65;;;-0.20;99.90;;;;;;5000560;28;20034;-75
2022/01/17 10:05:58;;;;;;;22.60;9.68;;;-0.30;99.90;;;;;;5002882;28;20033;-74
2022/01/17 10:08:24;;;;;;;18.48;9.05;;;-0.40;99.90;;;;;;5005024;28;20403;-75
2022/01/17 10:11:00;;;;;;;19.17;9.32;;;-0.40;99.90;;;;;;5006572;28;20030;-74
2022/01/17 10:13:35;;;;;;;23.42;10.73;;;-0.30;99.90;;;;;;4992762;28;20026;-74
2022/01/17 10:16:19;;;;;;;22.38;9.68;;;-0.50;99.90;;;;;;4996693;28;20098;-74
2022/01/17 10:19:01;;;;;;;22.65;10.48;;;-0.50;99.90;;;;;;5001450;28;20053;-74
2022/01/17 10:21:50;;;;;;;;;;;-0.40;99.90;;;;;;5004777;28;20088;-75
2022/01/17 10:35:07;;;;;;;26.20;11.38;;;-0.40;99.90;;;;;;4988606;28;20464;-74
2022/01/17 10:37:32;;;;;;;26.40;13.77;;;-0.30;99.90;;;;;;4996321;28;20113;-75
2022/01/17 10:40:15;;;;;;;30.52;13.95;;;-0.40;99.90;;;;;;5003044;28;20603;-75
2022/01/17 10:42:48;;;;;;;29.83;14.20;;;-0.30;99.90;;;;;;5007933;28;20037;-75
2022/01/17 10:45:19;;;;;;;27.27;13.52;;;-0.50;99.90;;;;;;5001548;28;20104;-75
2022/01/17 10:47:46;;;;;;;30.10;13.95;;;-0.50;99.90;;;;;;4999022;28;20026;-75
2022/01/17 10:50:26;;;;;;;26.38;12.43;;;-0.40;99.90;;;;;;4996578;28;20507;-75
2022/01/17 10:52:58;;;;;;;25.67;13.40;;;-0.30;99.90;;;;;;4979588;28;20030;-76
2022/01/17 10:55:28;;;;;;;27.45;13.25;;;-0.30;99.90;;;;;;4992728;28;20026;-75
2022/01/17 10:57:57;;;;;;;26.27;12.75;;;-0.50;99.90;;;;;;4999384;28;20034;-75
2022/01/17 11:00:26;;;;;;;26.45;11.85;;;-0.20;99.90;;;;;;5000458;28;20112;-75
2022/01/17 11:02:55;;;;;;;25.58;12.65;;;-0.30;99.90;;;;;;5008291;28;20534;-76
2022/01/17 11:05:22;;;;;;;31.40;12.82;;;-0.40;99.90;;;;;;4999818;28;20080;-75
2022/01/17 11:07:56;;;;;;;26.42;13.77;;;-0.30;99.90;;;;;;5003475;28;20037;-76
2022/01/17 11:10:26;;;;;;;25.55;11.85;;;-0.20;99.90;;;;;;4993711;28;20031;-75
2022/01/17 11:12:55;;;;;;;22.92;11.35;;;0.00;99.90;;;;;;5000183;28;20101;-76
2022/01/17 11:15:22;;;;;;;25.45;11.90;;;0.30;99.90;;;;;;4995117;28;20038;-76
2022/01/17 11:17:51;;;;;;;24.33;10.70;;;0.20;99.90;;;;;;4996104;28;20472;-76
2022/01/17 11:20:20;;;;;;;26.10;11.45;;;0.40;99.90;;;;;;4998218;28;20499;-76
2022/01/17 11:22:49;;;;;;;22.65;11.45;;;0.30;99.90;;;;;;4995795;28;20033;-76
2022/01/17 11:25:18;;;;;;;33.30;15.35;;;0.30;99.90;;;;;;4989145;28;20054;-76
2022/01/17 11:27:45;;;;;;;32.53;15.55;;;0.20;99.90;;;;;;5004160;28;20061;-76
2022/01/17 11:30:11;;;;;;;33.03;14.98;;;0.10;99.90;;;;;;5000642;28;20041;-76
2022/01/17 11:32:38;;;;;;;36.88;17.40;;;0.00;99.90;;;;;;4997095;28;20045;-77
2022/01/17 11:35:06;;;;;;;30.48;14.07;;;0.10;99.90;;;;;;4994446;28;20299;-76
2022/01/17 11:37:34;;;;;;;35.05;15.65;;;0.30;99.90;;;;;;4992350;28;20034;-76
2022/01/17 11:40:00;;;;;;;34.45;14.85;;;0.50;99.90;;;;;;4997640;28;20086;-75
2022/01/17 11:42:37;;;;;;;34.35;15.45;;;0.60;99.90;;;;;;4993436;28;20057;-76
2022/01/17 11:45:23;;;;;;;40.03;16.23;;;0.40;99.90;;;;;;4989299;28;20054;-76
2022/01/17 11:47:56;;;;;;;40.78;17.83;;;0.30;99.90;;;;;;4989676;28;20033;-77
2022/01/17 11:50:27;;;;;;;43.63;19.60;;;0.40;99.90;;;;;;4998491;28;20054;-76
2022/01/17 11:53:00;;;;;;;49.78;21.80;;;0.40;99.90;;;;;;5001726;28;20092;-77
2022/01/17 11:55:44;;;;;;;44.72;20.98;;;0.40;99.90;;;;;;4990711;28;20403;-77
2022/01/17 11:58:26;;;;;;;45.45;20.13;;;0.40;99.90;;;;;;4991634;28;21273;-76
2022/01/17 12:00:58;;;;;;;35.33;17.45;;;0.70;99.90;;;;;;4990767;28;20026;-77
2022/01/17 12:03:30;;;;;;;39.08;17.40;;;1.00;99.90;;;;;;5001391;28;20022;-77
2022/01/17 12:05:59;;;;;;;36.40;17.48;;;1.00;99.90;;;;;;5001305;28;20041;-77
2022/01/17 12:08:27;;;;;;;32.97;15.20;;;1.10;99.90;;;;;;4998671;28;20029;-77
2022/01/17 12:10:58;;;;;;;34.13;16.30;;;1.00;99.90;;;;;;4981093;28;20022;-77
2022/01/17 12:13:41;;;;;;;32.58;15.55;;;1.20;99.90;;;;;;4989475;28;20023;-77
2022/01/17 12:16:22;;;;;;;30.33;14.25;;;1.20;99.90;;;;;;5000647;28;20034;-78
2022/01/17 12:18:49;;;;;;;27.95;14.15;;;1.20;99.90;;;;;;5003336;28;20023;-78
2022/01/17 12:21:23;;;;;;;30.40;14.02;;;1.40;99.90;;;;;;5000782;28;20072;-77
2022/01/17 12:23:50;;;;;;;27.40;13.77;;;1.50;99.90;;;;;;4997783;28;20065;-77
2022/01/17 12:26:34;;;;;;;28.67;13.73;;;1.60;99.90;;;;;;4996696;28;20041;-77
2022/01/17 12:28:59;;;;;;;26.40;14.05;;;1.70;99.90;;;;;;4984346;28;20022;-77
2022/01/17 12:31:43;;;;;;;25.77;13.60;;;1.80;99.90;;;;;;4995274;28;20061;-77
2022/01/17 12:34:25;;;;;;;22.98;11.88;;;1.90;99.90;;;;;;4987032;28;20455;-78
2022/01/17 12:36:53;;;;;;;23.48;11.32;;;1.90;99.90;;;;;;5003311;28;20088;-79
2022/01/17 12:39:20;;;;;;;20.63;11.52;;;1.90;99.90;;;;;;5005361;28;20100;-78
2022/01/17 12:41:52;;;;;;;18.38;11.23;;;2.00;99.90;;;;;;4989791;28;20481;-78
2022/01/17 12:44:22;;;;;;;21.50;11.93;;;2.10;99.90;;;;;;4986897;28;20526;-78
2022/01/17 12:46:53;;;;;;;22.73;11.75;;;2.10;99.90;;;;;;4987705;28;20053;-78
2022/01/17 12:49:20;;;;;;;21.15;10.77;;;2.20;99.90;;;;;;4994066;28;20096;-78
2022/01/17 12:51:48;;;;;;;23.60;12.45;;;2.10;99.90;;;;;;4994846;28;20546;-78
2022/01/17 12:54:18;;;;;;;21.25;10.85;;;2.10;99.90;;;;;;4993919;28;20101;-78
2022/01/17 12:56:45;;;;;;;18.17;9.30;;;2.30;99.90;;;;;;4995757;28;20057;-78
2022/01/17 12:59:12;;;;;;;19.45;10.32;;;2.40;99.90;;;;;;4991797;28;20022;-78
2022/01/17 13:01:49;;;;;;;20.50;12.45;;;2.50;99.90;;;;;;4994938;28;20042;-78
2022/01/17 13:04:16;;;;;;;20.92;11.52;;;2.40;99.90;;;;;;4990562;28;20031;-78
2022/01/17 13:06:44;;;;;;;19.70;10.57;;;2.40;99.90;;;;;;4994669;28;20022;-79
2022/01/17 13:09:12;;;;;;;20.23;11.27;;;2.40;99.90;;;;;;4992244;28;20026;-78
2022/01/17 13:11:43;;;;;;;22.08;11.82;;;2.40;99.90;;;;;;4996574;28;20030;-78